createdAt,value
2023-05-25T00:01:11.506Z,62.23
2023-05-25T00:03:46.347Z,62.30
2023-05-25T00:06:20.508Z,62.41
2023-05-25T00:08:57.912Z,62.42
2023-05-25T00:11:31.443Z,62.43
2023-05-25T00:14:05.530Z,62.54
2023-05-25T00:16:41.081Z,62.57
2023-05-25T00:19:15.731Z,62.62
2023-05-25T00:21:50.373Z,62.54
2023-05-25T00:24:24.124Z,62.61
2023-05-25T00:26:57.593Z,62.68
2023-05-25T00:29:31.312Z,62.82
2023-05-25T00:32:05.386Z,62.85
2023-05-25T00:34:39.651Z,62.83
2023-05-25T00:37:13.800Z,62.93
2023-05-25T00:39:50.452Z,62.99
2023-05-25T00:42:24.303Z,62.95
2023-05-25T00:44:58.190Z,62.96
2023-05-25T00:47:32.157Z,63.12
2023-05-25T00:50:10.278Z,63.25
2023-05-25T00:52:44.054Z,63.28
2023-05-25T00:55:20.938Z,63.38
2023-05-25T00:57:57.684Z,63.49
2023-05-25T01:00:32.596Z,63.61
2023-05-25T01:03:12.382Z,63.79
2023-05-25T01:05:49.266Z,63.99
2023-05-25T01:08:26.198Z,64.10
2023-05-25T01:11:02.299Z,64.16
2023-05-25T01:13:38.572Z,64.04
2023-05-25T01:16:12.964Z,64.20
2023-05-25T01:18:53.413Z,64.44
2023-05-25T01:21:31.230Z,64.58
2023-05-25T01:24:12.645Z,64.65
2023-05-25T01:26:56.551Z,64.70
2023-05-25T01:29:34.891Z,64.75
2023-05-25T01:32:10.513Z,64.84
2023-05-25T01:34:45.362Z,64.93
2023-05-25T01:37:20.799Z,65.08
2023-05-25T01:39:55.580Z,65.08
2023-05-25T01:42:29.546Z,65.12
2023-05-25T01:45:04.236Z,65.15
2023-05-25T01:47:47.103Z,65.23
2023-05-25T01:50:28.509Z,65.39
2023-05-25T01:53:06.760Z,65.57
2023-05-25T01:55:45.529Z,65.72
2023-05-25T01:58:21.567Z,65.68
2023-05-25T02:00:57.222Z,65.86
2023-05-25T02:03:31.702Z,65.98
2023-05-25T02:06:05.613Z,65.86
2023-05-25T02:08:42.122Z,65.94
2023-05-25T02:11:16.583Z,65.90
2023-05-25T02:13:52.205Z,65.90
2023-05-25T02:16:27.872Z,66.01
2023-05-25T02:19:01.795Z,65.94
2023-05-25T02:21:37.449Z,66.15
2023-05-25T02:24:11.737Z,66.19
2023-05-25T02:26:45.548Z,66.16
2023-05-25T02:29:19.568Z,66.20
2023-05-25T02:31:53.538Z,66.18
2023-05-25T02:34:27.119Z,66.24
2023-05-25T02:37:02.732Z,66.26
2023-05-25T02:39:36.913Z,66.30
2023-05-25T02:42:10.941Z,66.38
2023-05-25T02:44:48.932Z,66.47
2023-05-25T02:47:23.269Z,66.62
2023-05-25T02:49:57.482Z,66.66
2023-05-25T02:52:33.118Z,66.67
2023-05-25T02:55:07.131Z,66.74
2023-05-25T02:57:43.581Z,66.65
2023-05-25T03:00:19.829Z,66.67
2023-05-25T03:02:53.650Z,66.56
2023-05-25T03:05:28.650Z,66.67
2023-05-25T03:08:02.371Z,66.78
2023-05-25T03:10:38.168Z,66.83
2023-05-25T03:13:13.549Z,66.94
2023-05-25T03:15:47.318Z,66.88
2023-05-25T03:18:22.310Z,66.83
2023-05-25T03:20:56.419Z,66.72
2023-05-25T03:23:30.815Z,66.87
2023-05-25T03:26:04.617Z,66.67
2023-05-25T03:28:39.822Z,66.76
2023-05-25T03:31:14.470Z,66.67
2023-05-25T03:33:48.141Z,66.70
2023-05-25T03:36:22.619Z,66.69
2023-05-25T03:38:56.531Z,66.93
2023-05-25T03:41:30.837Z,67.01
2023-05-25T03:44:04.553Z,67.04
2023-05-25T03:46:40.196Z,66.92
2023-05-25T03:49:14.415Z,66.83
2023-05-25T03:51:48.448Z,66.93
2023-05-25T03:54:23.517Z,67.02
2023-05-25T03:56:59.196Z,66.97
2023-05-25T03:59:33.192Z,67.01
2023-05-25T04:02:06.988Z,66.91
2023-05-25T04:04:44.889Z,66.87
2023-05-25T04:07:18.805Z,66.85
2023-05-25T04:09:52.392Z,66.92
2023-05-25T04:12:25.839Z,67.01
2023-05-25T04:14:59.728Z,67.01
2023-05-25T04:17:36.342Z,67.04
2023-05-25T04:20:13.601Z,67.03
2023-05-25T04:22:47.911Z,66.99
2023-05-25T04:25:22.518Z,66.90
2023-05-25T04:27:57.149Z,66.90
2023-05-25T04:31:04.079Z,66.90
2023-05-25T04:33:49.695Z,67.06
2023-05-25T04:36:35.166Z,67.14
2023-05-25T04:39:11.463Z,67.06
2023-05-25T04:41:50.243Z,66.99
2023-05-25T04:44:26.237Z,66.90
2023-05-25T04:47:01.747Z,66.78
2023-05-25T04:49:38.838Z,66.90
2023-05-25T04:52:15.218Z,66.97
2023-05-25T04:54:49.061Z,67.04
2023-05-25T04:57:23.069Z,67.13
2023-05-25T04:59:56.970Z,67.25
2023-05-25T05:02:31.227Z,67.20
2023-05-25T05:05:05.722Z,67.18
2023-05-25T05:07:39.851Z,67.30
2023-05-25T05:10:15.009Z,67.06
2023-05-25T05:12:53.886Z,67.06
2023-05-25T05:15:27.950Z,67.06
2023-05-25T05:18:02.926Z,67.20
2023-05-25T05:20:37.714Z,67.41
2023-05-25T05:23:11.945Z,67.47
2023-05-25T05:25:46.661Z,67.38
2023-05-25T05:28:21.895Z,67.40
2023-05-25T05:30:56.092Z,67.31
2023-05-25T05:33:30.796Z,67.38
2023-05-25T05:36:06.088Z,67.40
2023-05-25T05:38:41.931Z,67.50
2023-05-25T05:41:15.691Z,67.52
2023-05-25T05:43:55.421Z,67.52
2023-05-25T05:46:28.860Z,67.54
2023-05-25T05:49:03.052Z,67.67
2023-05-25T05:51:37.670Z,67.68
2023-05-25T05:54:12.074Z,67.54
2023-05-25T05:56:45.579Z,67.42
2023-05-25T05:59:19.821Z,67.45
2023-05-25T06:01:54.176Z,67.39
2023-05-25T06:04:29.368Z,67.27
2023-05-25T06:07:03.888Z,67.37
2023-05-25T06:09:37.621Z,67.39
2023-05-25T06:12:12.717Z,67.37
2023-05-25T06:14:50.502Z,67.38
2023-05-25T06:17:24.893Z,67.35
2023-05-25T06:20:00.886Z,67.39
2023-05-25T06:22:35.104Z,67.25
2023-05-25T06:25:10.765Z,66.98
2023-05-25T06:27:44.553Z,66.96
2023-05-25T06:30:19.085Z,66.80
2023-05-25T06:32:52.850Z,66.84
2023-05-25T06:35:26.925Z,66.94
2023-05-25T06:38:02.236Z,67.05
2023-05-25T06:40:35.976Z,67.10
2023-05-25T06:43:30.133Z,67.21
2023-05-25T06:46:21.897Z,67.03
2023-05-25T06:48:55.897Z,66.73
2023-05-25T06:51:30.025Z,66.74
2023-05-25T06:54:04.154Z,66.69
2023-05-25T06:56:37.985Z,66.62
2023-05-25T06:59:11.911Z,66.65
2023-05-25T07:01:47.626Z,66.64
2023-05-25T07:04:22.943Z,66.38
2023-05-25T07:06:56.933Z,66.36
2023-05-25T07:09:30.958Z,66.37
2023-05-25T07:12:07.955Z,66.22
2023-05-25T07:14:41.888Z,66.11
2023-05-25T07:17:15.814Z,66.22
2023-05-25T07:19:50.623Z,66.19
2023-05-25T07:22:24.775Z,66.28
2023-05-25T07:24:58.893Z,66.41
2023-05-25T07:27:34.142Z,66.37
2023-05-25T07:30:09.839Z,66.19
2023-05-25T07:32:44.313Z,66.09
2023-05-25T07:35:18.385Z,66.06
2023-05-25T07:38:00.314Z,65.97
2023-05-25T07:40:34.149Z,66.00
2023-05-25T07:43:08.516Z,65.83
2023-05-25T07:45:42.588Z,65.75
2023-05-25T07:48:16.378Z,65.68
2023-05-25T07:50:50.512Z,65.59
2023-05-25T07:53:24.608Z,65.40
2023-05-25T07:55:58.388Z,65.27
2023-05-25T07:58:32.195Z,65.11
2023-05-25T08:01:08.360Z,65.01
2023-05-25T08:06:22.294Z,64.75
2023-05-25T08:08:56.459Z,64.61
2023-05-25T08:11:31.654Z,64.61
2023-05-25T08:14:05.525Z,64.65
2023-05-25T08:16:39.504Z,64.44
2023-05-25T08:19:13.162Z,64.17
2023-05-25T08:21:47.080Z,63.93
2023-05-25T08:24:21.066Z,63.85
2023-05-25T08:26:55.233Z,63.63
2023-05-25T08:29:28.866Z,63.37
2023-05-25T08:32:02.593Z,63.29
2023-05-25T08:34:36.885Z,63.02
2023-05-25T08:37:10.558Z,62.77
2023-05-25T08:39:44.917Z,62.73
2023-05-25T08:42:18.638Z,62.34
2023-05-25T08:44:52.264Z,62.25
2023-05-25T08:47:31.708Z,62.10
2023-05-25T08:50:07.824Z,61.57
2023-05-25T08:52:46.974Z,61.41
2023-05-25T08:55:22.655Z,61.55
2023-05-25T08:58:04.672Z,61.51
2023-05-25T09:00:43.139Z,61.25
2023-05-25T09:03:19.575Z,61.18
2023-05-25T09:05:53.959Z,61.09
2023-05-25T09:08:28.829Z,61.11
2023-05-25T09:11:03.872Z,60.89
2023-05-25T09:13:38.861Z,60.94
2023-05-25T09:16:13.401Z,60.74
2023-05-25T09:18:47.205Z,60.57
2023-05-25T09:21:21.217Z,60.78
2023-05-25T09:23:56.269Z,60.77
2023-05-25T09:26:30.526Z,61.02
2023-05-25T09:29:04.730Z,60.64
2023-05-25T09:31:39.044Z,60.54
2023-05-25T09:34:17.036Z,60.52
2023-05-25T09:36:51.033Z,60.57
2023-05-25T09:39:25.380Z,60.47
2023-05-25T09:41:59.922Z,60.31
2023-05-25T09:44:34.007Z,60.23
2023-05-25T09:47:08.784Z,60.23
2023-05-25T09:49:44.772Z,60.06
2023-05-25T09:52:19.511Z,60.04
2023-05-25T09:54:55.366Z,60.33
2023-05-25T09:57:30.801Z,60.41
2023-05-25T10:00:05.918Z,60.31
2023-05-25T10:02:46.174Z,60.43
2023-05-25T10:05:20.227Z,60.28
2023-05-25T10:07:56.408Z,60.26
2023-05-25T10:10:31.203Z,60.23
2023-05-25T10:13:09.507Z,60.31
2023-05-25T10:15:47.436Z,60.57
2023-05-25T10:18:27.176Z,60.61
2023-05-25T10:21:06.097Z,60.45
2023-05-25T10:23:47.869Z,60.32
2023-05-25T10:26:26.716Z,60.38
2023-05-25T10:29:04.973Z,59.78
2023-05-25T10:31:40.032Z,59.66
2023-05-25T10:34:13.725Z,59.50
2023-05-25T10:36:49.318Z,58.86
2023-05-25T10:39:25.270Z,58.12
2023-05-25T10:42:02.551Z,58.06
2023-05-25T10:44:36.938Z,57.58
2023-05-25T10:47:12.093Z,57.12
2023-05-25T10:49:59.818Z,56.95
2023-05-25T10:52:34.813Z,55.30
2023-05-25T10:55:10.615Z,54.38
2023-05-25T10:57:44.471Z,54.42
2023-05-25T11:00:19.971Z,54.65
2023-05-25T11:02:56.217Z,53.84
2023-05-25T11:05:39.323Z,53.40
2023-05-25T11:08:14.534Z,53.08
2023-05-25T11:10:55.106Z,52.73
2023-05-25T11:13:41.395Z,52.52
2023-05-25T11:16:36.811Z,51.83
2023-05-25T11:19:18.685Z,51.48
2023-05-25T11:21:55.991Z,51.32
2023-05-25T11:24:32.442Z,50.80
2023-05-25T11:27:07.555Z,50.89
2023-05-25T11:29:42.119Z,50.09
2023-05-25T11:32:18.900Z,49.21
2023-05-25T11:34:55.994Z,48.97
2023-05-25T11:37:32.038Z,49.23
2023-05-25T11:40:12.112Z,49.17
2023-05-25T11:42:48.766Z,48.92
2023-05-25T11:45:26.838Z,49.00
2023-05-25T11:48:01.511Z,48.92
2023-05-25T11:50:35.406Z,48.86
2023-05-25T11:53:11.276Z,49.13
2023-05-25T11:55:53.687Z,49.17
2023-05-25T11:58:37.308Z,49.25
2023-05-25T12:01:21.765Z,49.06
2023-05-25T12:03:57.183Z,49.10
2023-05-25T12:06:34.337Z,48.69
2023-05-25T12:09:12.898Z,48.46
2023-05-25T12:11:47.504Z,48.57
2023-05-25T12:14:21.922Z,48.30
2023-05-25T12:16:56.753Z,48.49
2023-05-25T12:19:31.013Z,48.39
2023-05-25T12:22:06.597Z,48.43
2023-05-25T12:24:41.536Z,48.34
2023-05-25T12:27:22.966Z,48.36
2023-05-25T12:30:01.342Z,48.41
2023-05-25T12:32:35.785Z,48.32
2023-05-25T12:35:11.427Z,48.35
2023-05-25T12:37:45.092Z,48.04
2023-05-25T12:40:25.034Z,48.31
2023-05-25T12:43:02.001Z,49.01
2023-05-25T12:45:41.580Z,48.26
2023-05-25T12:48:15.658Z,47.44
2023-05-25T12:51:10.888Z,47.27
2023-05-25T12:53:54.727Z,47.04
2023-05-25T12:56:28.429Z,47.00
2023-05-25T12:59:18.271Z,47.14
2023-05-25T13:01:53.308Z,47.54
2023-05-25T13:04:27.524Z,47.84
2023-05-25T13:07:01.819Z,48.05
2023-05-25T13:09:36.358Z,48.26
2023-05-25T13:12:11.677Z,48.03
2023-05-25T13:14:46.856Z,48.01
2023-05-25T13:17:22.810Z,48.05
2023-05-25T13:19:57.000Z,47.95
2023-05-25T13:22:30.749Z,47.95
2023-05-25T13:25:04.728Z,48.22
2023-05-25T13:27:39.505Z,48.64
2023-05-25T13:30:15.651Z,48.34
2023-05-25T13:32:51.689Z,47.96
2023-05-25T13:35:38.321Z,47.91
2023-05-25T13:38:13.469Z,48.04
2023-05-25T13:40:48.427Z,47.85
2023-05-25T13:43:22.415Z,47.85
2023-05-25T13:45:56.191Z,47.82
2023-05-25T13:48:30.764Z,47.45
2023-05-25T13:51:04.865Z,47.22
2023-05-25T13:53:38.508Z,47.27
2023-05-25T13:56:13.612Z,46.93
2023-05-25T13:58:47.509Z,46.66
2023-05-25T14:01:21.516Z,46.40
2023-05-25T14:03:56.596Z,46.42
2023-05-25T14:06:31.350Z,46.42
2023-05-25T14:09:06.504Z,46.45
2023-05-25T14:11:41.354Z,46.45
2023-05-25T14:14:30.027Z,46.29
2023-05-25T14:17:06.435Z,46.55
2023-05-25T14:19:40.787Z,46.86
2023-05-25T14:22:14.959Z,47.04
2023-05-25T14:24:49.515Z,47.15
2023-05-25T14:27:23.499Z,47.20
2023-05-25T14:29:57.621Z,47.46
2023-05-25T14:32:31.587Z,47.63
2023-05-25T14:35:06.460Z,47.94
2023-05-25T14:37:48.075Z,48.13
2023-05-25T14:40:22.642Z,48.33
2023-05-25T14:42:57.099Z,48.18
2023-05-25T14:45:31.248Z,47.80
2023-05-25T14:48:16.174Z,47.21
2023-05-25T14:50:51.611Z,47.07
2023-05-25T14:53:25.836Z,47.12
2023-05-25T14:55:59.750Z,47.50
2023-05-25T14:58:34.631Z,47.39
2023-05-25T15:01:09.451Z,47.50
2023-05-25T15:03:43.842Z,47.52
2023-05-25T15:06:17.975Z,47.42
2023-05-25T15:08:51.802Z,47.58
2023-05-25T15:11:26.069Z,47.71
2023-05-25T15:14:00.828Z,47.64
2023-05-25T15:16:34.675Z,47.60
2023-05-25T15:19:11.416Z,47.73
2023-05-25T15:21:46.782Z,47.72
2023-05-25T15:24:20.387Z,47.49
2023-05-25T15:26:54.451Z,47.44
2023-05-25T15:29:28.165Z,47.41
2023-05-25T15:32:02.096Z,47.46
2023-05-25T15:34:36.993Z,47.76
2023-05-25T15:37:12.945Z,47.77
2023-05-25T15:39:47.161Z,47.53
2023-05-25T15:42:22.860Z,47.51
2023-05-25T15:44:57.367Z,47.48
2023-05-25T15:47:31.224Z,47.38
2023-05-25T15:50:05.146Z,47.42
2023-05-25T15:52:38.708Z,47.24
2023-05-25T15:55:14.336Z,47.19
2023-05-25T15:57:48.254Z,47.27
2023-05-25T16:00:23.414Z,47.16
2023-05-25T16:02:58.626Z,47.25
2023-05-25T16:05:33.505Z,47.22
2023-05-25T16:08:07.307Z,47.07
2023-05-25T16:10:41.130Z,47.10
2023-05-25T16:13:15.226Z,46.91
2023-05-25T16:15:50.010Z,46.84
2023-05-25T16:18:24.034Z,46.82
2023-05-25T16:20:58.155Z,46.91
2023-05-25T16:23:32.078Z,47.17
2023-05-25T16:26:06.433Z,47.13
2023-05-25T16:28:40.211Z,47.18
2023-05-25T16:31:16.035Z,47.34
2023-05-25T16:33:49.816Z,47.55
2023-05-25T16:36:25.305Z,47.68
2023-05-25T16:39:00.972Z,47.84
2023-05-25T16:41:35.034Z,47.89
2023-05-25T16:44:09.038Z,47.88
2023-05-25T16:46:42.998Z,47.88
2023-05-25T16:49:18.152Z,48.11
2023-05-25T16:51:52.628Z,48.19
2023-05-25T16:54:26.386Z,48.33
2023-05-25T16:56:59.914Z,48.44
2023-05-25T16:59:33.761Z,48.56
2023-05-25T17:02:08.419Z,48.64
2023-05-25T17:04:42.245Z,48.76
2023-05-25T17:07:16.328Z,48.68
2023-05-25T17:09:50.085Z,48.81
2023-05-25T17:12:24.108Z,48.87
2023-05-25T17:14:58.007Z,49.09
2023-05-25T17:17:31.646Z,49.08
2023-05-25T17:20:05.883Z,49.34
2023-05-25T17:22:39.517Z,49.38
2023-05-25T17:25:13.509Z,49.51
2023-05-25T17:27:46.856Z,49.32
2023-05-25T17:30:21.557Z,49.34
2023-05-25T17:33:01.993Z,49.43
2023-05-25T17:35:36.584Z,49.43
2023-05-25T17:38:10.461Z,49.43
2023-05-25T17:40:44.457Z,49.33
2023-05-25T17:43:18.313Z,49.27
2023-05-25T17:45:53.199Z,49.49
2023-05-25T17:48:27.024Z,49.52
2023-05-25T17:51:00.855Z,49.46
2023-05-25T17:53:34.323Z,49.65
2023-05-25T17:56:08.945Z,49.62
2023-05-25T17:58:48.027Z,49.78
2023-05-25T18:01:21.989Z,49.89
2023-05-25T18:03:56.027Z,49.98
2023-05-25T18:06:30.316Z,50.04
2023-05-25T18:09:05.308Z,50.24
2023-05-25T18:11:39.109Z,50.41
2023-05-25T18:14:13.228Z,50.47
2023-05-25T18:16:47.123Z,50.63
2023-05-25T18:19:21.972Z,50.77
2023-05-25T18:21:56.387Z,50.86
2023-05-25T18:24:30.532Z,50.99
2023-05-25T18:27:05.277Z,51.18
2023-05-25T18:29:39.186Z,51.36
2023-05-25T18:32:13.414Z,51.41
2023-05-25T18:34:49.113Z,51.54
2023-05-25T18:37:23.641Z,51.69
2023-05-25T18:39:57.791Z,51.93
2023-05-25T18:42:31.674Z,52.01
2023-05-25T18:45:06.247Z,52.14
2023-05-25T18:47:40.318Z,52.25
2023-05-25T18:50:15.751Z,52.35
2023-05-25T18:52:53.448Z,52.56
2023-05-25T18:55:27.519Z,52.63
2023-05-25T18:58:01.423Z,52.72
2023-05-25T19:00:35.194Z,52.69
2023-05-25T19:03:08.959Z,52.83
2023-05-25T19:05:43.198Z,52.62
2023-05-25T19:08:17.382Z,52.66
2023-05-25T19:10:50.780Z,52.85
2023-05-25T19:13:24.479Z,52.78
2023-05-25T19:15:58.197Z,52.78
2023-05-25T19:18:32.010Z,52.83
2023-05-25T19:21:06.145Z,52.85
2023-05-25T19:23:39.604Z,52.87
2023-05-25T19:26:13.983Z,52.96
2023-05-25T19:28:47.650Z,52.88
2023-05-25T19:31:24.070Z,53.01
2023-05-25T19:33:58.326Z,53.13
2023-05-25T19:36:33.118Z,53.01
2023-05-25T19:39:07.265Z,53.03
2023-05-25T19:41:42.070Z,53.11
2023-05-25T19:44:16.506Z,53.15
2023-05-25T19:46:50.414Z,53.26
2023-05-25T19:49:24.233Z,53.27
2023-05-25T19:51:58.181Z,53.32
2023-05-25T19:54:32.286Z,53.42
2023-05-25T19:57:07.097Z,53.45
2023-05-25T19:59:41.229Z,53.64
2023-05-25T20:02:15.186Z,53.73
2023-05-25T20:04:49.197Z,53.81
2023-05-25T20:07:24.261Z,53.98
2023-05-25T20:09:58.017Z,54.18
2023-05-25T20:12:31.940Z,54.38
2023-05-25T20:15:05.658Z,54.30
2023-05-25T20:17:39.585Z,54.43
2023-05-25T20:20:14.088Z,54.53
2023-05-25T20:22:47.693Z,54.62
2023-05-25T20:25:21.694Z,54.75
2023-05-25T20:27:55.612Z,54.85
2023-05-25T20:30:29.077Z,54.98
2023-05-25T20:33:03.413Z,55.08
2023-05-25T20:35:37.853Z,55.09
2023-05-25T20:38:11.728Z,55.22
2023-05-25T20:40:45.553Z,55.33
2023-05-25T20:43:19.303Z,55.45
2023-05-25T20:45:53.352Z,55.48
2023-05-25T20:48:27.375Z,55.56
2023-05-25T20:51:01.294Z,55.56
2023-05-25T20:53:35.237Z,55.58
2023-05-25T20:56:09.208Z,55.76
2023-05-25T20:58:43.008Z,55.92
2023-05-25T21:01:17.053Z,56.05
2023-05-25T21:03:51.885Z,56.30
2023-05-25T21:06:26.623Z,56.42
2023-05-25T21:09:00.571Z,56.39
2023-05-25T21:11:34.075Z,56.46
2023-05-25T21:14:08.509Z,56.71
2023-05-25T21:16:42.338Z,56.81
2023-05-25T21:19:16.863Z,56.95
2023-05-25T21:21:50.791Z,57.15
2023-05-25T21:24:25.111Z,57.13
2023-05-25T21:26:58.813Z,57.29
2023-05-25T21:29:32.872Z,57.32
2023-05-25T21:32:06.824Z,57.53
2023-05-25T21:34:40.336Z,57.55
2023-05-25T21:37:13.918Z,57.72
2023-05-25T21:39:47.813Z,57.71
2023-05-25T21:42:21.864Z,57.75
2023-05-25T21:44:55.878Z,57.85
2023-05-25T21:47:29.940Z,57.95
2023-05-25T21:50:03.925Z,57.80
2023-05-25T21:52:38.360Z,57.78
2023-05-25T21:55:13.048Z,57.80
2023-05-25T21:57:46.915Z,57.71
2023-05-25T22:00:21.905Z,57.77
2023-05-25T22:02:55.794Z,57.87
2023-05-25T22:05:35.148Z,57.90
2023-05-25T22:08:09.640Z,57.87
2023-05-25T22:10:43.996Z,57.97
2023-05-25T22:13:18.831Z,58.06
2023-05-25T22:15:53.157Z,58.29
2023-05-25T22:18:27.133Z,58.42
2023-05-25T22:21:01.325Z,58.51
2023-05-25T22:23:35.115Z,58.72
2023-05-25T22:26:08.632Z,58.82
2023-05-25T22:28:42.609Z,58.99
2023-05-25T22:31:16.554Z,58.94
2023-05-25T22:33:51.220Z,59.09
2023-05-25T22:36:24.912Z,59.26
2023-05-25T22:38:58.402Z,59.31
2023-05-25T22:41:32.123Z,59.37
2023-05-25T22:44:05.521Z,59.43
2023-05-25T22:46:39.419Z,59.56
2023-05-25T22:49:13.196Z,59.58
2023-05-25T22:51:46.900Z,59.76
2023-05-25T22:54:20.911Z,59.88
2023-05-25T22:56:54.395Z,59.99
2023-05-25T22:59:28.222Z,60.09
2023-05-25T23:02:01.717Z,60.22
2023-05-25T23:04:35.475Z,60.37
2023-05-25T23:07:09.206Z,60.51
2023-05-25T23:09:43.092Z,60.63
2023-05-25T23:12:16.999Z,60.67
2023-05-25T23:14:52.674Z,60.76
2023-05-25T23:17:26.465Z,60.87
2023-05-25T23:20:00.342Z,60.92
2023-05-25T23:22:34.710Z,60.87
2023-05-25T23:25:09.881Z,60.84
2023-05-25T23:27:44.364Z,60.52
2023-05-25T23:30:19.248Z,60.43
2023-05-25T23:32:53.553Z,60.42
2023-05-25T23:35:27.404Z,60.27
2023-05-25T23:38:02.177Z,60.01
2023-05-25T23:40:35.937Z,59.96
2023-05-25T23:43:09.824Z,59.76
2023-05-25T23:45:44.095Z,59.80
2023-05-25T23:48:18.142Z,59.89
2023-05-25T23:50:51.840Z,59.92
2023-05-25T23:53:25.300Z,59.73
2023-05-25T23:55:59.613Z,59.63
2023-05-25T23:58:33.288Z,59.80
